Time;durP1;ratioP1;P1;durP2;ratioP2;P2;SDS_P1;SDS_P2;PMS_P1;PMS_P2;Temp;Humidity;BMP_temperature;BMP_pressure;BME280_temperature;BME280_humidity;BME280_pressure;Samples;Min_cycle;Max_cycle;Signal;HPM_P1;HPM_P2
2022/01/31 00:02:17;;;;;;;202.07;165.88;;;;;;;15.18;31.77;93973.75;5062432;28;20040;-65
2022/01/31 00:04:43;;;;;;;189.57;156.57;;;;;;;15.18;31.86;93962.97;5059616;28;20066;-65
2022/01/31 00:07:10;;;;;;;194.60;159.50;;;;;;;15.16;31.96;93958.03;5060735;28;20397;-65
2022/01/31 00:09:37;;;;;;;190.80;158.13;;;;;;;15.18;31.99;93962.97;5059441;28;20083;-65
2022/01/31 00:12:07;;;;;;;193.73;159.63;;;;;;;15.17;31.81;93939.94;5042290;28;20044;-64
2022/01/31 00:14:41;;;;;;;198.93;163.48;;;;;;;15.18;31.99;93924.53;5061907;28;20051;-65
2022/01/31 00:17:08;;;;;;;197.20;164.23;;;;;;;15.14;31.82;93903.84;5062168;28;20047;-65
2022/01/31 00:19:35;;;;;;;195.55;159.43;;;;;;;15.16;31.69;93877.22;5061174;28;20037;-65
2022/01/31 00:22:01;;;;;;;193.20;160.27;;;;;;;15.16;31.95;93866.44;5060176;28;20416;-65
2022/01/31 00:24:26;;;;;;;195.05;159.60;;;;;;;15.14;32.00;93847.28;5059384;28;20048;-65
2022/01/31 00:26:52;;;;;;;194.70;159.18;;;;;;;15.15;31.83;93843.41;5059236;28;20044;-66
2022/01/31 00:29:17;;;;;;;194.75;159.57;;;;;;;15.13;32.03;93832.31;5059908;28;20058;-65
2022/01/31 00:31:43;;;;;;;197.68;162.15;;;;;;;15.13;32.00;93828.88;5062609;28;20032;-65
2022/01/31 00:34:09;;;;;;;191.88;158.93;;;;;;;15.14;31.95;93824.97;5064324;28;20067;-65
2022/01/31 00:36:34;;;;;;;195.18;162.13;;;;;;;15.13;32.00;93821.53;5064702;28;20575;-65
2022/01/31 00:39:00;;;;;;;194.50;160.95;;;;;;;15.13;32.01;93813.44;5061594;28;20048;-65
2022/01/31 00:41:26;;;;;;;197.80;161.30;;;;;;;15.13;31.95;93820.78;5063031;28;20427;-65
2022/01/31 00:43:59;;;;;;;195.48;160.52;;;;;;;15.13;31.84;93813.44;5058617;28;20077;-65
2022/01/31 00:46:37;;;;;;;196.52;162.35;;;;;;;15.13;32.00;93826.91;5060557;28;20048;-65
2022/01/31 00:49:02;;;;;;;194.93;159.52;;;;;;;15.13;31.87;93818.84;5063116;28;20135;-65
2022/01/31 00:51:28;;;;;;;199.52;164.77;;;;;;;15.13;31.83;93824.22;5063673;28;20454;-65
2022/01/31 00:53:53;;;;;;;196.35;160.60;;;;;;;15.13;32.00;93810.00;5060273;28;20060;-65
2022/01/31 00:56:18;;;;;;;200.07;164.52;;;;;;;15.13;31.68;93805.38;5061860;28;20451;-65
2022/01/31 00:58:44;;;;;;;197.13;162.77;;;;;;;15.13;31.83;93799.22;5056752;28;20113;-65
2022/01/31 01:01:09;;;;;;;194.70;159.52;;;;;;;15.12;31.96;93784.25;5057794;28;20173;-65
2022/01/31 01:03:35;;;;;;;197.65;162.57;;;;;;;15.12;32.09;93774.25;5061206;28;20101;-66
2022/01/31 01:06:00;;;;;;;193.10;159.27;;;;;;;15.11;31.90;93761.97;5063979;28;20045;-65
2022/01/31 01:08:26;;;;;;;195.82;161.90;;;;;;;15.13;32.10;93758.84;5061106;28;20051;-65
2022/01/31 01:10:51;;;;;;;190.32;154.68;;;;;;;15.12;31.97;93758.09;5066847;28;20048;-66
2022/01/31 01:13:17;;;;;;;203.60;168.02;;;;;;;15.13;31.98;93753.44;5060879;28;20048;-66
2022/01/31 01:15:42;;;;;;;192.68;161.13;;;;;;;15.12;31.98;93744.63;5064035;28;20060;-65
2022/01/31 01:18:08;;;;;;;195.32;162.45;;;;;;;15.12;31.91;93752.69;5063000;28;20481;-65
2022/01/31 01:20:34;;;;;;;202.13;164.95;;;;;;;15.12;32.07;93750.00;5062039;28;20044;-65
2022/01/31 01:22:59;;;;;;;205.25;168.80;;;;;;;15.13;32.01;93729.22;5060126;28;20503;-65
2022/01/31 01:25:25;;;;;;;198.50;163.93;;;;;;;15.11;31.69;93742.38;5058918;28;20522;-65
2022/01/31 01:27:53;;;;;;;193.82;160.07;;;;;;;15.12;32.09;93751.94;5059166;28;20052;-65
2022/01/31 01:30:19;;;;;;;198.60;162.10;;;;;;;15.12;31.92;93738.47;5057443;28;20124;-65
2022/01/31 01:35:25;;;;;;;192.13;157.68;;;;;;;15.12;31.92;93751.94;5061485;28;20156;-65
2022/01/31 01:37:50;;;;;;;201.82;166.70;;;;;;;15.11;31.78;93726.94;5062902;28;20398;-65
2022/01/31 01:40:16;;;;;;;199.63;165.15;;;;;;;15.09;31.82;93721.25;5040973;28;20911;-65
2022/01/31 01:42:42;;;;;;;208.23;170.88;;;;;;;15.11;31.71;93723.50;5063425;28;20584;-65
2022/01/31 01:45:08;;;;;;;193.20;160.70;;;;;;;15.10;32.01;93708.53;5063707;28;20052;-66
2022/01/31 01:47:34;;;;;;;188.68;155.32;;;;;;;15.10;32.22;93720.06;5062548;28;20925;-65
2022/01/31 01:49:59;;;;;;;196.02;160.52;;;;;;;15.09;31.83;93729.34;5065698;28;20054;-65
2022/01/31 01:52:25;;;;;;;193.80;159.35;;;;;;;15.09;31.94;93715.13;5063883;28;20500;-65
2022/01/31 01:54:51;;;;;;;190.10;155.45;;;;;;;15.08;31.86;93692.81;5060853;28;20147;-65
2022/01/31 01:57:18;;;;;;;197.02;162.25;;;;;;;15.08;31.75;93682.06;5062639;28;20075;-66
2022/01/31 01:59:44;;;;;;;195.02;163.25;;;;;;;15.08;31.92;93673.97;5062658;28;20143;-65
2022/01/31 02:02:09;;;;;;;199.35;163.50;;;;;;;15.09;31.92;93674.72;5061957;28;20048;-65
2022/01/31 02:04:35;;;;;;;189.93;157.35;;;;;;;15.09;31.66;93663.94;5064058;28;20080;-65
2022/01/31 02:07:02;;;;;;;193.18;158.40;;;;;;;15.08;32.19;93651.69;5063484;28;20056;-65
2022/01/31 02:09:30;;;;;;;192.02;157.43;;;;;;;15.09;31.94;93647.78;5061917;28;20072;-65
2022/01/31 02:11:57;;;;;;;191.02;155.38;;;;;;;15.09;31.75;93655.88;5050032;28;20046;-65
2022/01/31 02:14:23;;;;;;;199.18;164.13;;;;;;;15.09;31.89;93637.78;5063849;28;20056;-65
2022/01/31 02:16:50;;;;;;;195.25;161.75;;;;;;;15.09;31.89;93626.25;5059853;28;20056;-65
2022/01/31 02:19:18;;;;;;;191.30;159.32;;;;;;;15.08;31.95;93617.41;5059660;28;20952;-65
2022/01/31 02:21:44;;;;;;;192.15;158.00;;;;;;;15.08;32.06;93605.91;5064371;28;20063;-65
2022/01/31 02:24:12;;;;;;;192.88;159.10;;;;;;;15.09;32.01;93604.69;5065878;28;20033;-65
2022/01/31 02:26:37;;;;;;;185.75;152.00;;;;;;;15.08;31.96;93590.47;5065420;28;20045;-65
2022/01/31 02:29:05;;;;;;;194.90;161.50;;;;;;;15.08;31.99;93587.03;5047683;28;20051;-65
2022/01/31 02:31:31;;;;;;;195.68;159.68;;;;;;;15.08;32.00;93566.25;5066003;28;20044;-65
2022/01/31 02:33:56;;;;;;;190.63;157.23;;;;;;;15.08;32.16;93573.56;5063052;28;20060;-66
2022/01/31 02:36:22;;;;;;;196.63;161.57;;;;;;;15.06;31.97;93584.78;5061084;28;20041;-65
2022/01/31 02:38:47;;;;;;;191.10;156.57;;;;;;;15.08;31.86;93565.50;5064098;28;20048;-65
2022/01/31 02:41:13;;;;;;;193.52;160.20;;;;;;;15.08;32.10;93565.50;5063072;28;20052;-65
2022/01/31 02:43:38;;;;;;;190.70;158.00;;;;;;;15.05;32.00;93553.66;5043078;28;20044;-65
2022/01/31 02:46:04;;;;;;;195.48;160.98;;;;;;;15.07;32.26;93561.31;5059824;28;20036;-65
2022/01/31 02:48:33;;;;;;;193.02;157.40;;;;;;;15.07;31.92;93551.28;5062384;28;20116;-65
2022/01/31 02:50:59;;;;;;;190.80;159.05;;;;;;;15.06;31.92;93555.16;5064514;28;20052;-65
2022/01/31 02:53:26;;;;;;;198.02;164.52;;;;;;;15.06;31.95;93547.09;5062057;28;20048;-65
2022/01/31 02:55:55;;;;;;;189.57;156.73;;;;;;;15.06;31.84;93541.72;5064181;28;20055;-65
2022/01/31 02:58:21;;;;;;;192.52;159.32;;;;;;;15.06;32.13;93549.03;5063395;28;20059;-64
2022/01/31 03:00:47;;;;;;;193.45;159.02;;;;;;;15.06;32.00;93530.19;5062935;28;20052;-65
2022/01/31 03:03:13;;;;;;;194.55;157.68;;;;;;;15.05;31.98;93524.06;5063358;28;20114;-65
2022/01/31 03:05:39;;;;;;;192.43;160.00;;;;;;;15.05;31.98;93534.81;5060410;28;20047;-65
2022/01/31 03:08:07;;;;;;;192.10;159.73;;;;;;;15.06;31.90;93527.50;5059242;28;20239;-65
2022/01/31 03:10:34;;;;;;;192.30;158.32;;;;;;;15.05;31.88;93513.28;5062994;28;20059;-65
2022/01/31 03:13:00;;;;;;;199.55;163.38;;;;;;;15.05;31.85;93520.59;5061185;28;20045;-65
2022/01/31 03:15:26;;;;;;;192.27;159.65;;;;;;;15.05;31.83;93521.34;5063447;28;20741;-65
2022/01/31 03:17:52;;;;;;;191.27;158.85;;;;;;;15.06;31.97;93517.47;5058482;28;20692;-65
2022/01/31 03:20:20;;;;;;;195.15;160.70;;;;;;;15.05;32.01;93509.84;5064688;28;20056;-64
2022/01/31 03:22:47;;;;;;;209.85;170.82;;;;;;;15.05;31.94;93509.84;5062114;28;20068;-65
2022/01/31 03:25:13;;;;;;;192.30;158.95;;;;;;;15.03;31.91;93491.44;5061268;28;20059;-65
2022/01/31 03:27:40;;;;;;;193.98;158.30;;;;;;;15.04;31.88;93481.41;5064409;28;20045;-65
2022/01/31 03:30:07;;;;;;;195.52;162.13;;;;;;;15.04;31.91;93478.72;5064627;28;20051;-65
2022/01/31 03:32:33;;;;;;;189.15;153.65;;;;;;;15.03;32.15;93474.53;5063234;28;21002;-66
2022/01/31 03:34:59;;;;;;;191.27;156.40;;;;;;;15.04;31.77;93454.47;5059462;28;20051;-65
2022/01/31 03:37:24;;;;;;;193.55;155.00;;;;;;;15.04;31.81;93451.78;5060582;28;20394;-65
2022/01/31 03:39:50;;;;;;;191.85;158.35;;;;;;;15.03;31.97;93434.13;5062992;28;20106;-65
2022/01/31 03:42:18;;;;;;;192.02;159.38;;;;;;;15.03;31.84;93434.13;5064402;28;20527;-66
2022/01/31 03:44:45;;;;;;;191.52;158.73;;;;;;;15.03;31.87;93426.81;5059509;28;20064;-65
2022/01/31 03:47:11;;;;;;;194.63;162.23;;;;;;;15.04;31.93;93422.16;5061904;28;20416;-65
2022/01/31 03:49:36;;;;;;;194.95;159.43;;;;;;;15.03;31.83;93421.41;5063168;28;20041;-65
2022/01/31 03:52:02;;;;;;;192.02;155.93;;;;;;;15.02;31.74;93414.53;5059696;28;20086;-65
2022/01/31 03:54:28;;;;;;;190.65;157.68;;;;;;;15.02;31.75;93419.19;5063847;28;20162;-65
2022/01/31 03:56:53;;;;;;;193.35;159.82;;;;;;;15.02;31.75;93421.88;5064896;28;20056;-65
2022/01/31 03:59:19;;;;;;;206.48;168.70;;;;;;;15.03;31.80;93426.06;5061902;28;20593;-65
2022/01/31 04:01:44;;;;;;;192.57;159.25;;;;;;;15.02;32.00;93416.47;5063204;28;20230;-65
2022/01/31 04:04:10;;;;;;;192.15;159.07;;;;;;;15.01;32.24;93428.44;5060911;28;20104;-65
2022/01/31 04:06:40;;;;;;;194.85;162.43;;;;;;;15.00;31.79;93425.00;5064863;28;20051;-65
2022/01/31 04:09:06;;;;;;;195.27;160.57;;;;;;;14.98;31.87;93427.41;5060955;28;20110;-66
2022/01/31 04:11:32;;;;;;;192.05;157.63;;;;;;;14.96;31.88;93429.03;5043725;28;20499;-65
2022/01/31 04:13:57;;;;;;;192.55;158.55;;;;;;;14.95;32.02;93427.56;5062254;28;20471;-65
2022/01/31 04:16:23;;;;;;;193.32;159.10;;;;;;;14.96;31.85;93439.81;5064244;28;20149;-65
2022/01/31 04:18:48;;;;;;;188.05;155.63;;;;;;;14.96;32.35;93432.47;5063871;28;20156;-65
2022/01/31 04:21:14;;;;;;;191.68;158.23;;;;;;;14.95;31.78;93392.56;5045613;28;20066;-65
2022/01/31 04:23:40;;;;;;;194.85;160.55;;;;;;;14.96;32.00;93384.03;5064161;28;20219;-65
2022/01/31 04:26:13;;;;;;;193.88;159.35;;;;;;;14.96;31.91;93397.47;5061971;28;20044;-65
2022/01/31 04:28:43;;;;;;;186.68;152.27;;;;;;;14.97;31.80;93406.31;5063206;28;20052;-65
2022/01/31 04:33:34;;;;;;;187.73;152.90;;;;;;;14.96;31.87;93377.88;5064402;28;20352;-65
2022/01/31 04:36:00;;;;;;;190.73;154.63;;;;;;;14.96;31.87;93361.72;5063969;28;20052;-65
2022/01/31 04:38:26;;;;;;;193.50;157.60;;;;;;;14.94;31.89;93337.97;5063411;28;20055;-65
2022/01/31 04:40:51;;;;;;;194.25;159.60;;;;;;;14.95;31.85;93319.88;5062983;28;20195;-65
2022/01/31 04:43:17;;;;;;;194.82;160.50;;;;;;;14.97;31.86;93328.22;5061122;28;20052;-65
2022/01/31 04:45:47;;;;;;;194.75;159.27;;;;;;;14.97;31.93;93328.22;5060767;28;20135;-65
2022/01/31 04:48:14;;;;;;;196.98;161.85;;;;;;;14.96;32.00;93308.63;5059898;28;20053;-65
2022/01/31 04:50:41;;;;;;;196.07;161.50;;;;;;;14.95;31.95;93295.66;5042544;28;20136;-65
2022/01/31 04:53:06;;;;;;;195.68;161.30;;;;;;;14.94;31.91;93286.81;5061819;28;20048;-65
2022/01/31 04:55:32;;;;;;;198.00;163.38;;;;;;;14.96;31.94;93286.34;5065420;28;20051;-65
2022/01/31 04:57:57;;;;;;;196.15;162.45;;;;;;;14.95;31.76;93272.13;5044184;28;20056;-65
2022/01/31 05:00:24;;;;;;;205.30;167.38;;;;;;;14.96;31.93;93275.56;5058324;28;20070;-65
2022/01/31 05:02:50;;;;;;;208.23;171.32;;;;;;;14.96;32.04;93264.81;5062223;28;20044;-65
2022/01/31 05:05:15;;;;;;;200.15;164.38;;;;;;;14.94;31.83;93251.81;5055763;28;20508;-65
2022/01/31 05:07:41;;;;;;;199.05;163.20;;;;;;;14.98;32.02;93246.25;5063455;28;20058;-64
2022/01/31 05:10:07;;;;;;;194.45;161.00;;;;;;;14.99;31.94;93242.38;5059286;28;20385;-65
2022/01/31 05:12:32;;;;;;;194.77;160.25;;;;;;;15.00;31.94;93238.47;5058877;28;20497;-65
2022/01/31 05:14:58;;;;;;;192.35;158.20;;;;;;;15.00;31.86;93241.91;5050815;28;20152;-64
2022/01/31 05:17:23;;;;;;;198.25;164.02;;;;;;;15.01;31.81;93231.88;5046383;28;20127;-65
2022/01/31 05:19:49;;;;;;;194.73;159.90;;;;;;;15.00;31.69;93211.53;5061988;28;20187;-65
2022/01/31 05:22:14;;;;;;;202.45;166.32;;;;;;;15.01;31.82;93191.50;5062970;28;20484;-65
2022/01/31 05:24:40;;;;;;;194.90;160.13;;;;;;;15.01;31.86;93203.03;5059974;28;20114;-63
2022/01/31 05:27:06;;;;;;;195.02;160.68;;;;;;;15.02;31.73;93199.13;5065203;28;20045;-64
2022/01/31 05:29:31;;;;;;;193.35;158.05;;;;;;;15.03;31.71;93207.94;5064143;28;20056;-64
2022/01/31 05:31:57;;;;;;;193.05;159.30;;;;;;;15.04;31.71;93231.72;5064096;28;20045;-67
2022/01/31 05:34:24;;;;;;;206.82;169.45;;;;;;;15.03;31.65;93232.94;5060638;28;20040;-69
2022/01/31 05:36:54;;;;;;;192.43;159.30;;;;;;;15.05;31.80;93235.16;5062413;28;20496;-66
2022/01/31 05:39:21;;;;;;;195.70;161.85;;;;;;;15.06;31.53;93215.13;5064235;28;20131;-66
2022/01/31 05:41:47;;;;;;;206.77;170.30;;;;;;;15.07;31.51;93201.22;5062927;28;20458;-65
2022/01/31 05:44:12;;;;;;;197.10;163.55;;;;;;;15.08;31.56;93178.47;5064669;28;20047;-65
2022/01/31 05:46:38;;;;;;;193.70;159.98;;;;;;;15.08;31.88;93165.00;5063890;28;20059;-68
2022/01/31 05:49:03;;;;;;;193.45;161.70;;;;;;;15.09;31.63;93165.75;5066638;28;20076;-66
2022/01/31 05:51:29;;;;;;;193.95;161.32;;;;;;;15.10;31.68;93165.28;5064399;28;20519;-65
2022/01/31 05:53:54;;;;;;;198.38;162.55;;;;;;;15.10;31.68;93167.97;5065187;28;20054;-66
2022/01/31 05:56:20;;;;;;;192.05;157.13;;;;;;;15.11;31.67;93160.66;5066943;28;20047;-66
2022/01/31 05:58:46;;;;;;;192.20;159.65;;;;;;;15.11;31.73;93169.47;5064227;28;20104;-66
2022/01/31 06:01:13;;;;;;;194.98;161.80;;;;;;;15.11;31.74;93180.25;5063603;28;20060;-66
2022/01/31 06:03:39;;;;;;;191.50;158.07;;;;;;;15.12;31.77;93170.22;5065444;28;20721;-65
2022/01/31 06:06:04;;;;;;;199.15;164.88;;;;;;;15.12;31.79;93160.19;5063103;28;20051;-65
2022/01/31 06:08:30;;;;;;;188.68;156.45;;;;;;;15.12;31.98;93160.19;5066430;28;20044;-66
2022/01/31 06:10:56;;;;;;;192.10;159.77;;;;;;;15.13;31.77;93163.63;5048718;28;20053;-65
2022/01/31 06:13:28;;;;;;;194.27;159.45;;;;;;;15.12;31.69;93160.19;5060995;28;20040;-66
2022/01/31 06:15:54;;;;;;;195.13;160.77;;;;;;;15.11;31.80;93174.88;5062870;28;20320;-66
2022/01/31 06:18:20;;;;;;;192.10;159.60;;;;;;;15.10;31.72;93178.75;5056813;28;21492;-66
2022/01/31 06:20:45;;;;;;;196.88;163.88;;;;;;;15.11;31.85;93177.56;5065244;28;20121;-65
2022/01/31 06:23:11;;;;;;;203.07;167.27;;;;;;;15.10;31.83;93184.16;5065692;28;20480;-66
2022/01/31 06:25:37;;;;;;;194.35;161.77;;;;;;;15.13;31.73;93174.41;5063482;28;20052;-66
2022/01/31 06:28:07;;;;;;;199.50;165.68;;;;;;;15.11;31.74;93174.13;5063365;28;20044;-66
2022/01/31 06:30:33;;;;;;;;;;;;;;;15.11;31.67;93171.44;5063819;28;20059;-65
2022/01/31 06:32:59;;;;;;;203.88;163.88;;;;;;;15.12;31.74;93168.28;5063240;28;20279;-66
2022/01/31 06:35:25;;;;;;;192.77;158.38;;;;;;;15.07;31.73;93170.84;5062363;28;20058;-66
2022/01/31 06:37:51;;;;;;;195.75;160.80;;;;;;;15.06;31.71;93169.34;5046499;28;20129;-65
2022/01/31 06:40:17;;;;;;;203.45;166.75;;;;;;;15.06;31.94;93172.03;5064655;28;20138;-66
2022/01/31 06:42:43;;;;;;;210.82;173.90;;;;;;;15.02;31.67;93158.00;5061489;28;20473;-66
2022/01/31 06:45:09;;;;;;;195.82;162.52;;;;;;;14.98;31.80;93171.63;5062770;28;20441;-65
2022/01/31 06:47:35;;;;;;;194.25;160.07;;;;;;;15.00;31.92;93163.09;5064000;28;20047;-66
2022/01/31 06:50:04;;;;;;;205.68;168.27;;;;;;;15.00;32.05;93165.78;5062684;28;20064;-66
2022/01/31 06:52:33;;;;;;;190.70;157.07;;;;;;;15.03;31.93;93171.00;5064583;28;20048;-66
2022/01/31 06:55:02;;;;;;;192.13;156.57;;;;;;;15.06;31.81;93169.34;5066113;28;20048;-66
2022/01/31 06:57:33;;;;;;;194.98;159.50;;;;;;;15.08;31.85;93162.31;5065307;28;20052;-66
2022/01/31 07:00:00;;;;;;;194.90;162.02;;;;;;;15.10;31.91;93153.78;5063812;28;20044;-65
2022/01/31 07:02:26;;;;;;;197.07;162.10;;;;;;;15.10;31.85;93153.78;5066683;28;20053;-66
2022/01/31 07:04:52;;;;;;;196.80;162.32;;;;;;;15.10;31.74;93165.28;5063321;28;20064;-66
2022/01/31 07:07:17;;;;;;;193.85;161.77;;;;;;;15.12;31.71;93157.50;5064299;28;20150;-66
2022/01/31 07:09:43;;;;;;;195.57;161.30;;;;;;;15.11;31.83;93142.53;5065365;28;20052;-66
2022/01/31 07:12:10;;;;;;;190.80;156.90;;;;;;;15.11;31.85;93139.84;5065507;28;20181;-65
2022/01/31 07:14:36;;;;;;;197.68;162.23;;;;;;;15.12;31.95;93129.81;5064252;28;20059;-65
2022/01/31 07:17:04;;;;;;;188.65;155.75;;;;;;;15.13;31.81;93142.84;5065254;28;20045;-65
2022/01/31 07:19:33;;;;;;;195.00;161.38;;;;;;;15.10;31.85;93116.81;5066133;28;20143;-65
2022/01/31 07:21:59;;;;;;;196.60;161.53;;;;;;;15.11;31.79;93106.78;5061174;28;20048;-65
2022/01/31 07:24:48;;;;;;;197.30;161.60;;;;;;;15.11;32.03;93112.19;5065322;28;20144;-68
2022/01/31 07:27:10;;;;;;;195.20;159.50;;;;;;;15.10;32.19;93089.91;5061938;28;20071;-66
2022/01/31 07:29:36;;;;;;;187.85;153.60;;;;;;;15.09;32.15;93079.56;5061823;28;20047;-67
2022/01/31 07:32:02;;;;;;;194.93;160.73;;;;;;;15.10;32.12;93081.81;5066993;28;20481;-67
2022/01/31 07:34:28;;;;;;;196.55;162.93;;;;;;;15.12;32.16;93073.28;5063498;28;20131;-68
2022/01/31 07:36:54;;;;;;;195.48;161.18;;;;;;;15.14;32.21;93081.66;5062820;28;20051;-66
2022/01/31 07:39:20;;;;;;;194.52;162.68;;;;;;;15.16;32.03;93061.13;5060143;28;20048;-65
2022/01/31 07:41:47;;;;;;;189.05;156.23;;;;;;;15.15;32.06;93048.13;5059599;28;20114;-66
2022/01/31 07:44:13;;;;;;;194.60;161.23;;;;;;;15.15;32.15;93040.78;5060370;28;20113;-67
2022/01/31 07:46:39;;;;;;;190.85;159.65;;;;;;;15.19;31.95;93039.88;5061953;28;20048;-64
2022/01/31 07:49:07;;;;;;;195.43;162.65;;;;;;;15.17;31.98;93045.72;5061795;28;20040;-66
2022/01/31 07:51:39;;;;;;;194.95;161.80;;;;;;;15.12;32.00;93039.00;5063028;28;20494;-67
2022/01/31 07:54:05;;;;;;;190.63;158.77;;;;;;;15.15;31.86;93043.50;5063328;28;20049;-69
2022/01/31 07:56:31;;;;;;;193.23;161.68;;;;;;;15.18;31.82;93027.63;5060375;28;20489;-67
2022/01/31 07:58:56;;;;;;;188.93;157.07;;;;;;;15.16;31.74;93026.13;5061327;28;20047;-67
2022/01/31 08:01:22;;;;;;;193.25;160.20;;;;;;;15.14;31.75;93015.06;5060789;28;20056;-67
2022/01/31 08:03:47;;;;;;;192.82;160.02;;;;;;;15.04;31.85;93010.94;5039724;28;20065;-67
2022/01/31 08:06:14;;;;;;;188.30;154.90;;;;;;;15.02;31.81;93001.84;5060900;28;20441;-67
2022/01/31 08:08:41;;;;;;;193.82;160.95;;;;;;;15.07;31.89;93014.66;5065281;28;20120;-67
2022/01/31 08:11:07;;;;;;;188.32;154.77;;;;;;;15.06;31.71;92989.69;5061321;28;20187;-67
2022/01/31 08:13:34;;;;;;;197.23;162.00;;;;;;;15.10;31.65;92989.50;5064357;28;20115;-67
2022/01/31 08:16:17;;;;;;;188.55;155.73;;;;;;;15.11;31.65;92993.69;5060797;28;20060;-67
2022/01/31 08:18:44;;;;;;;191.85;157.75;;;;;;;15.12;31.44;92984.41;5062716;28;20048;-69
2022/01/31 08:21:12;;;;;;;191.85;159.85;;;;;;;15.13;31.48;92975.88;5061850;28;20215;-67
2022/01/31 08:23:38;;;;;;;195.15;162.77;;;;;;;15.15;31.54;92980.81;5059981;28;20060;-69
2022/01/31 08:26:06;;;;;;;189.93;155.55;;;;;;;15.13;31.37;92991.28;5064905;28;20044;-67
2022/01/31 08:28:39;;;;;;;194.77;161.30;;;;;;;15.13;31.54;92988.59;5061085;28;20037;-68
2022/01/31 08:31:10;;;;;;;191.18;157.98;;;;;;;15.15;31.75;92984.25;5060152;28;20356;-67
2022/01/31 08:33:39;;;;;;;193.20;158.43;;;;;;;15.19;31.53;92988.72;5061874;28;20063;-68
2022/01/31 08:36:07;;;;;;;197.98;163.32;;;;;;;15.18;31.66;92977.19;5063584;28;20048;-68
2022/01/31 08:38:35;;;;;;;203.18;169.65;;;;;;;15.17;31.42;92978.41;5061923;28;20056;-67
2022/01/31 08:41:01;;;;;;;200.88;167.32;;;;;;;15.13;31.71;92953.59;5058477;28;20052;-68
2022/01/31 08:43:27;;;;;;;198.90;162.05;;;;;;;15.09;31.70;92972.63;5060808;28;20071;-68
2022/01/31 08:45:55;;;;;;;192.68;159.23;;;;;;;15.09;31.56;92958.41;5062590;28;20133;-68
2022/01/31 08:48:21;;;;;;;192.88;159.50;;;;;;;15.08;31.52;92941.50;5048453;28;20060;-68
2022/01/31 08:50:47;;;;;;;193.23;160.68;;;;;;;15.11;31.37;92937.88;5064792;28;20121;-68
2022/01/31 08:53:13;;;;;;;193.05;160.23;;;;;;;15.11;31.42;92932.50;5068634;28;20106;-67
2022/01/31 08:55:47;;;;;;;200.07;165.30;;;;;;;15.11;31.51;92927.13;5066039;28;20055;-67
2022/01/31 08:58:12;;;;;;;195.30;161.30;;;;;;;15.11;31.45;92937.16;5065306;28;20046;-68
2022/01/31 09:00:38;;;;;;;203.55;168.13;;;;;;;15.10;31.57;92922.94;5063266;28;20408;-68
2022/01/31 09:05:40;;;;;;;191.27;156.38;;;;;;;15.15;31.50;92913.47;5067736;28;20048;-68
2022/01/31 09:08:06;;;;;;;194.02;161.55;;;;;;;15.10;31.72;92903.34;5069796;28;20119;-68
2022/01/31 09:10:31;;;;;;;195.70;162.20;;;;;;;15.13;31.80;92932.03;5068834;28;20058;-68
2022/01/31 09:12:57;;;;;;;195.32;160.10;;;;;;;15.10;31.89;92939.09;5064590;28;20492;-68
2022/01/31 09:15:22;;;;;;;194.25;161.43;;;;;;;15.09;32.09;92955.72;5066721;28;20379;-68
2022/01/31 09:17:48;;;;;;;195.98;163.60;;;;;;;15.08;32.08;92951.53;5068492;28;20433;-68
2022/01/31 09:20:14;;;;;;;202.52;167.93;;;;;;;15.09;32.06;92969.19;5047054;28;20047;-68
2022/01/31 09:22:41;;;;;;;202.10;167.80;;;;;;;15.14;32.03;92957.78;5065203;28;20435;-68
2022/01/31 09:25:07;;;;;;;194.80;161.50;;;;;;;15.16;32.13;92958.06;5064489;28;20151;-68
2022/01/31 09:27:33;;;;;;;188.45;155.60;;;;;;;15.18;32.32;92957.59;5062133;28;20044;-68
2022/01/31 09:29:59;;;;;;;208.48;172.98;;;;;;;15.18;32.18;92950.25;5064178;28;20037;-68
2022/01/31 09:32:25;;;;;;;198.25;165.45;;;;;;;15.17;32.16;92948.78;5066859;28;20056;-68
2022/01/31 09:34:52;;;;;;;188.45;154.25;;;;;;;15.20;32.17;92974.78;5068353;28;20467;-68
2022/01/31 09:37:21;;;;;;;212.23;176.52;;;;;;;15.20;32.25;92955.19;5055976;28;20121;-68
2022/01/31 09:39:48;;;;;;;196.45;163.15;;;;;;;15.18;32.44;92957.59;5061180;28;20063;-67
2022/01/31 09:42:21;;;;;;;203.05;166.82;;;;;;;15.20;32.36;92955.94;5057664;28;20515;-66
2022/01/31 09:48:31;;;;;;;197.57;163.25;;;;;;;15.23;32.32;92948.88;5059125;28;20055;-63
2022/01/31 09:50:10;;;;;;;205.65;170.30;;;;;;;15.23;32.44;92959.66;5062905;28;20041;-65
2022/01/31 09:52:36;;;;;;;197.40;165.48;;;;;;;15.23;32.49;92952.31;5063634;28;20496;-63
2022/01/31 09:55:01;;;;;;;192.98;158.90;;;;;;;15.22;32.45;92947.38;5061299;28;20161;-64
2022/01/31 09:57:27;;;;;;;188.90;157.43;;;;;;;15.21;32.38;92938.56;5064183;28;20561;-64
2022/01/31 09:59:52;;;;;;;195.23;162.98;;;;;;;15.19;32.59;92948.31;5061613;28;20060;-65
2022/01/31 10:02:18;;;;;;;196.77;164.45;;;;;;;15.19;32.37;92935.59;5064154;28;20519;-64
2022/01/31 10:04:48;;;;;;;191.68;159.90;;;;;;;15.20;32.32;92947.84;5061118;28;20075;-65
2022/01/31 10:07:14;;;;;;;191.70;157.55;;;;;;;15.21;32.47;92940.50;5061224;28;20109;-65
2022/01/31 10:09:45;;;;;;;195.68;162.65;;;;;;;15.22;32.45;92950.09;5063951;28;20048;-64
2022/01/31 10:17:35;;;;;;;190.60;157.07;;;;;;;15.20;32.56;92950.53;5062346;28;20445;-64
2022/01/31 10:20:17;;;;;;;193.10;160.23;;;;;;;15.23;32.27;92938.09;5065911;28;20048;-63
2022/01/31 10:22:43;;;;;;;214.55;177.48;;;;;;;15.21;32.67;92951.28;5063036;28;20052;-64
2022/01/31 10:25:15;;;;;;;196.95;164.73;;;;;;;15.15;32.69;92951.94;5058841;28;20281;-64
2022/01/31 10:27:46;;;;;;;190.48;157.57;;;;;;;15.13;32.90;92954.34;5062336;28;20360;-63
2022/01/31 10:30:25;;;;;;;197.98;163.18;;;;;;;15.17;32.76;92962.25;5062597;28;20045;-63
2022/01/31 10:32:53;;;;;;;205.20;169.65;;;;;;;15.15;32.62;92957.31;5060871;28;20078;-63
2022/01/31 10:35:24;;;;;;;201.70;167.38;;;;;;;15.18;32.72;92965.69;5059125;28;20056;-63
2022/01/31 10:37:55;;;;;;;190.07;158.25;;;;;;;15.12;32.90;92969.00;5063634;28;20058;-64
2022/01/31 10:44:45;;;;;;;192.73;158.20;;;;;;;15.19;32.71;92940.97;5025126;28;20188;-65
2022/01/31 10:50:37;;;;;;;196.57;160.88;;;;;;;15.18;32.82;92931.41;5035815;28;20060;-64
2022/01/31 10:52:12;;;;;;;200.50;161.98;;;;;;;15.23;32.65;92932.72;4962236;28;20054;-64
2022/01/31 10:54:41;;;;;;;190.77;156.98;;;;;;;15.24;32.71;92929.56;4945184;28;20818;-63
2022/01/31 10:57:14;;;;;;;193.02;160.50;;;;;;;15.23;33.08;92925.38;5003622;28;20393;-65
2022/01/31 10:59:43;;;;;;;192.07;160.38;;;;;;;15.23;32.67;92911.19;5062073;28;20113;-63
2022/01/31 11:02:24;;;;;;;195.18;161.50;;;;;;;15.20;32.75;92920.19;5061344;28;20090;-66
2022/01/31 11:04:51;;;;;;;197.68;161.93;;;;;;;15.20;32.81;92934.38;5047494;28;20132;-64
2022/01/31 11:07:24;;;;;;;190.02;157.52;;;;;;;15.22;32.50;92925.84;5062185;28;20132;-66
2022/01/31 11:09:52;;;;;;;198.23;164.38;;;;;;;15.25;32.80;92930.31;5057138;28;20405;-65
2022/01/31 11:12:24;;;;;;;196.15;161.35;;;;;;;15.25;32.78;92925.66;5057839;28;20063;-66
2022/01/31 11:14:53;;;;;;;190.50;156.90;;;;;;;15.24;32.85;92928.81;5064412;28;20059;-65
2022/01/31 11:17:18;;;;;;;188.27;156.77;;;;;;;15.24;32.95;92905.31;5061913;28;20048;-66
2022/01/31 11:19:54;;;;;;;195.95;160.90;;;;;;;15.28;32.90;92927.44;5061735;28;20060;-65
2022/01/31 11:22:28;;;;;;;197.45;163.57;;;;;;;15.28;32.85;92921.31;5062143;28;20036;-64
2022/01/31 11:24:58;;;;;;;204.18;171.02;;;;;;;15.27;32.84;92925.94;5042114;28;20083;-64